TimePST,TemperatureF,Dew PointF,Humidity,Sea Level PressureIn,VisibilityMPH,Wind Direction,Wind SpeedMPH,Gust SpeedMPH,PrecipitationIn,Events,Conditions,WindDirDegrees,DateUTC
12:50 AM,10.4,10.4,100,30.38,10.0,South,3.5,-,N/A,Snow,Light Snow,180,2013-01-01 08:50:00
12:58 AM,11.5,11.5,100,30.51,10.0,South,4.6,-,0.00,Snow,Light Snow,180,2013-01-01 08:58:00
1:00 AM,12.2,12.2,100,30.37,10.0,SSE,4.6,-,N/A,,Mostly Cloudy,160,2013-01-01 09:00:00
1:10 AM,12.2,12.2,100,30.37,10.0,SSE,5.8,-,N/A,,Scattered Clouds,150,2013-01-01 09:10:00
1:30 AM,15.8,15.8,100,30.37,10.0,South,2.3,-,N/A,,Mostly Cloudy,170,2013-01-01 09:30:00
1:58 AM,16.7,16.7,100,30.52,10.0,SW,2.3,-,0.00,,Overcast,220,2013-01-01 09:58:00
2:30 AM,15.8,15.8,100,30.41,10.0,SSW,4.6,-,N/A,Snow,Light Snow,210,2013-01-01 10:30:00
2:47 AM,12.2,12.2,100,30.42,10.0,WSW,3.5,-,N/A,,Overcast,240,2013-01-01 10:47:00
2:53 AM,12.2,12.2,100,30.43,10.0,West,3.5,-,N/A,,Overcast,260,2013-01-01 10:53:00
2:58 AM,12.6,12.6,100,30.55,10.0,West,4.6,-,0.00,,Overcast,260,2013-01-01 10:58:00
3:18 AM,14.0,14.0,100,30.42,10.0,South,4.6,-,N/A,Snow,Light Snow,190,2013-01-01 11:18:00
3:28 AM,14.0,14.0,100,30.42,10.0,SSW,2.3,-,N/A,,Overcast,210,2013-01-01 11:28:00
3:58 AM,15.4,15.4,100,30.56,10.0,WSW,6.9,-,0.00,,Overcast,240,2013-01-01 11:58:00
4:58 AM,20.5,20.5,100,30.56,10.0,WSW,8.1,-,N/A,,Overcast,240,2013-01-01 12:58:00
5:58 AM,19.9,19.9,100,30.58,10.0,WSW,4.6,-,N/A,,Overcast,250,2013-01-01 13:58:00
6:13 AM,21.2,21.2,100,30.45,10.0,WSW,5.8,-,N/A,,Overcast,250,2013-01-01 14:13:00
6:43 AM,21.2,21.2,100,30.44,10.0,West,4.6,-,N/A,,Overcast,260,2013-01-01 14:43:00
6:58 AM,20.5,20.5,100,30.58,10.0,West,5.8,-,N/A,,Overcast,280,2013-01-01 14:58:00
7:33 AM,21.2,21.2,100,30.45,10.0,WSW,3.5,-,N/A,Snow,Light Snow,240,2013-01-01 15:33:00
7:46 AM,21.2,21.2,100,30.46,10.0,SSW,5.8,-,N/A,,Overcast,210,2013-01-01 15:46:00
7:56 AM,21.2,21.2,100,30.47,10.0,WSW,9.2,-,N/A,,Overcast,240,2013-01-01 15:56:00
7:58 AM,20.8,20.8,100,30.61,10.0,WSW,10.4,-,0.00,,Overcast,240,2013-01-01 15:58:00
7:59 AM,21.2,21.2,100,30.47,10.0,WSW,10.4,-,N/A,Snow,Light Snow,250,2013-01-01 15:59:00
8:36 AM,21.2,21.2,100,30.48,10.0,WSW,6.9,-,N/A,,Overcast,240,2013-01-01 16:36:00
8:44 AM,21.2,21.2,100,30.48,10.0,WSW,3.5,-,N/A,Snow,Light Snow,240,2013-01-01 16:44:00
8:57 AM,21.2,21.2,100,30.49,10.0,WSW,4.6,-,N/A,,Overcast,240,2013-01-01 16:57:00
8:58 AM,21.2,21.2,100,30.62,10.0,WSW,4.6,-,0.00,,Overcast,240,2013-01-01 16:58:00
9:05 AM,21.2,21.2,100,30.49,10.0,SW,5.8,-,N/A,Snow,Light Snow,230,2013-01-01 17:05:00
9:27 AM,21.2,21.2,100,30.50,10.0,SW,4.6,-,N/A,,Overcast,230,2013-01-01 17:27:00
9:29 AM,21.2,21.2,100,30.50,10.0,SW,4.6,-,N/A,Snow,Light Snow,230,2013-01-01 17:29:00
9:30 AM,21.2,21.2,100,30.50,10.0,SW,5.8,-,N/A,,Overcast,230,2013-01-01 17:30:00
9:42 AM,21.2,21.2,100,30.51,10.0,WSW,6.9,-,N/A,Snow,Light Snow,240,2013-01-01 17:42:00
9:43 AM,21.2,21.2,100,30.51,10.0,WSW,8.1,-,N/A,Snow,Light Snow,240,2013-01-01 17:43:00
9:58 AM,21.4,21.4,100,30.65,10.0,WSW,6.9,-,0.00,Snow,Light Snow,240,2013-01-01 17:58:00
9:59 AM,21.2,21.2,100,30.51,10.0,WSW,6.9,-,N/A,,Overcast,240,2013-01-01 17:59:00
10:06 AM,21.2,21.2,100,30.51,10.0,SSW,8.1,-,N/A,Snow,Light Snow,210,2013-01-01 18:06:00
10:16 AM,21.2,21.2,100,30.51,10.0,SSW,5.8,-,N/A,Snow,Light Snow,210,2013-01-01 18:16:00
10:43 AM,21.2,21.2,100,30.51,10.0,WSW,9.2,-,N/A,,Overcast,250,2013-01-01 18:43:00
10:58 AM,21.6,21.6,100,30.64,10.0,West,6.9,-,0.00,,Overcast,260,2013-01-01 18:58:00
11:58 AM,21.7,21.7,100,30.64,10.0,West,6.9,-,N/A,,Overcast,280,2013-01-01 19:58:00
12:04 PM,21.2,21.2,100,30.50,10.0,West,6.9,-,N/A,,Overcast,280,2013-01-01 20:04:00
12:13 PM,21.2,21.2,100,30.50,10.0,West,6.9,-,N/A,,Overcast,280,2013-01-01 20:13:00
12:23 PM,21.2,21.2,100,30.51,10.0,West,5.8,-,N/A,,Overcast,270,2013-01-01 20:23:00
12:58 PM,21.9,21.9,100,30.64,10.0,NW,3.5,-,0.00,,Overcast,310,2013-01-01 20:58:00
1:13 PM,23.0,23.0,100,30.51,10.0,North,-9999.0,-,N/A,,Overcast,0,2013-01-01 21:13:00
1:22 PM,21.2,21.2,100,30.51,10.0,Calm,Calm,-,N/A,,Overcast,0,2013-01-01 21:22:00
1:32 PM,21.2,21.2,100,30.51,10.0,Calm,Calm,-,N/A,,Overcast,0,2013-01-01 21:32:00
1:58 PM,21.9,21.9,100,30.63,10.0,Calm,Calm,-,0.00,,Overcast,0,2013-01-01 21:58:00
2:04 PM,21.2,21.2,100,30.51,10.0,Calm,Calm,-,N/A,,Overcast,0,2013-01-01 22:04:00
2:33 PM,21.2,21.2,100,30.50,10.0,SE,3.5,-,N/A,,Overcast,130,2013-01-01 22:33:00
2:44 PM,21.2,21.2,100,30.51,10.0,ESE,3.5,-,N/A,,Overcast,120,2013-01-01 22:44:00
2:58 PM,21.7,21.7,100,30.64,10.0,ESE,3.5,-,0.00,,Overcast,110,2013-01-01 22:58:00
3:09 PM,21.2,21.2,100,30.50,10.0,SE,3.5,-,N/A,,Overcast,140,2013-01-01 23:09:00
3:29 PM,21.2,21.2,100,30.51,10.0,Calm,Calm,-,N/A,,Overcast,0,2013-01-01 23:29:00
3:34 PM,21.2,21.2,100,30.51,10.0,Calm,Calm,-,N/A,,Overcast,0,2013-01-01 23:34:00
3:58 PM,21.7,21.7,100,30.65,10.0,SSW,2.3,-,0.00,,Overcast,210,2013-01-01 23:58:00
4:58 PM,21.7,21.7,100,30.64,10.0,SW,2.3,-,N/A,,Overcast,230,2013-01-02 00:58:00
5:32 PM,21.2,21.2,100,30.51,10.0,North,1.2,-,N/A,,Overcast,350,2013-01-02 01:32:00
5:42 PM,21.2,21.2,100,30.51,10.0,West,1.2,-,N/A,,Overcast,270,2013-01-02 01:42:00
5:46 PM,21.2,21.2,100,30.51,10.0,Calm,Calm,-,N/A,,Overcast,0,2013-01-02 01:46:00
5:58 PM,21.6,21.6,100,30.64,10.0,Calm,Calm,-,0.00,,Overcast,0,2013-01-02 01:58:00
6:53 PM,21.2,21.2,100,30.51,10.0,East,4.6,-,N/A,,Overcast,100,2013-01-02 02:53:00
6:58 PM,21.6,21.6,100,30.64,10.0,East,3.5,-,0.00,,Overcast,90,2013-01-02 02:58:00
7:08 PM,21.2,21.2,100,30.52,10.0,ENE,2.3,-,N/A,,Overcast,70,2013-01-02 03:08:00
7:17 PM,21.2,21.2,100,30.52,10.0,East,2.3,-,N/A,,Overcast,80,2013-01-02 03:17:00
7:28 PM,21.2,21.2,100,30.52,10.0,NE,2.3,-,N/A,,Overcast,50,2013-01-02 03:28:00
7:45 PM,21.2,21.2,100,30.52,10.0,NNE,2.3,-,N/A,,Overcast,30,2013-01-02 03:45:00
7:54 PM,21.2,21.2,100,30.52,10.0,East,2.3,-,N/A,,Overcast,100,2013-01-02 03:54:00
7:58 PM,21.4,21.4,100,30.64,10.0,ENE,2.3,-,0.00,,Overcast,60,2013-01-02 03:58:00
8:03 PM,21.2,21.2,100,30.52,10.0,Variable,2.3,-,N/A,,Overcast,0,2013-01-02 04:03:00
8:41 PM,21.2,21.2,100,30.52,10.0,Calm,Calm,-,N/A,,Overcast,0,2013-01-02 04:41:00
8:47 PM,21.2,21.2,100,30.52,10.0,Calm,Calm,-,N/A,,Overcast,0,2013-01-02 04:47:00
8:56 PM,21.2,21.2,100,30.53,10.0,North,2.3,-,N/A,,Overcast,10,2013-01-02 04:56:00
8:58 PM,21.2,21.2,100,30.65,10.0,North,2.3,-,0.00,,Overcast,10,2013-01-02 04:58:00
9:13 PM,21.2,21.2,100,30.53,10.0,NNE,3.5,-,N/A,,Overcast,20,2013-01-02 05:13:00
9:17 PM,21.2,21.2,100,30.53,10.0,North,2.3,-,N/A,,Overcast,10,2013-01-02 05:17:00
9:44 PM,21.2,21.2,100,30.52,10.0,East,5.8,-,N/A,,Overcast,80,2013-01-02 05:44:00
9:54 PM,21.2,21.2,100,30.52,10.0,ENE,4.6,-,N/A,,Overcast,60,2013-01-02 05:54:00
9:58 PM,21.6,21.6,100,30.64,10.0,NE,3.5,-,0.00,,Overcast,50,2013-01-02 05:58:00
9:59 PM,21.2,21.2,100,30.52,10.0,NE,3.5,-,N/A,,Overcast,40,2013-01-02 05:59:00
10:21 PM,21.2,21.2,100,30.52,10.0,SE,2.3,-,N/A,Snow,Light Snow,130,2013-01-02 06:21:00
10:31 PM,21.2,21.2,100,30.52,10.0,ESE,3.5,-,N/A,,Overcast,110,2013-01-02 06:31:00
10:42 PM,21.2,21.2,100,30.52,10.0,ESE,3.5,-,N/A,Snow,Light Snow,110,2013-01-02 06:42:00
10:58 PM,21.6,21.6,100,30.65,10.0,SW,1.2,-,0.00,Snow,Light Snow,220,2013-01-02 06:58:00
11:13 PM,21.2,21.2,100,30.53,10.0,WSW,2.3,-,N/A,Snow,Light Snow,250,2013-01-02 07:13:00
11:17 PM,21.2,21.2,100,30.53,10.0,West,2.3,-,N/A,,Overcast,260,2013-01-02 07:17:00
11:58 PM,21.4,21.4,100,30.65,10.0,North,3.5,-,0.00,,Overcast,350,2013-01-02 07:58:00